createdAt,value
2019-05-30T00:00:17.117Z,8.80
2019-05-30T00:02:39.684Z,6.45
2019-05-30T00:05:07.948Z,10.80
2019-05-30T00:07:36.120Z,6.47
2019-05-30T00:10:07.202Z,9.80
2019-05-30T00:12:35.371Z,8.30
2019-05-30T00:15:06.458Z,7.87
2019-05-30T00:17:34.869Z,7.40
2019-05-30T00:20:05.376Z,6.80
2019-05-30T00:22:33.608Z,12.00
2019-05-30T00:25:02.441Z,7.33
2019-05-30T00:27:30.685Z,11.33
2019-05-30T00:29:59.297Z,6.43
2019-05-30T00:32:27.553Z,6.37
2019-05-30T00:34:55.740Z,7.70
2019-05-30T00:37:23.962Z,5.47
2019-05-30T00:39:52.130Z,8.67
2019-05-30T00:42:20.377Z,8.90
2019-05-30T00:44:48.653Z,5.90
2019-05-30T00:47:16.849Z,6.60
2019-05-30T00:49:45.062Z,9.60
2019-05-30T00:52:13.236Z,8.93
2019-05-30T00:54:41.422Z,6.37
2019-05-30T00:57:09.625Z,6.37
2019-05-30T00:59:37.811Z,6.83
2019-05-30T01:02:06.969Z,9.03
2019-05-30T01:04:35.306Z,9.33
2019-05-30T01:07:03.662Z,8.77
2019-05-30T01:09:32.148Z,15.30
2019-05-30T01:12:01.055Z,7.67
2019-05-30T01:14:29.435Z,6.70
2019-05-30T01:16:58.905Z,7.17
2019-05-30T01:19:27.221Z,6.63
2019-05-30T01:21:55.407Z,5.77
2019-05-30T01:24:23.565Z,7.70
2019-05-30T01:26:51.786Z,7.50
2019-05-30T01:29:19.962Z,9.77
2019-05-30T01:31:48.197Z,7.20
2019-05-30T01:34:16.408Z,12.97
2019-05-30T01:36:44.615Z,6.87
2019-05-30T01:39:12.821Z,7.27
2019-05-30T01:41:41.102Z,6.23
2019-05-30T01:44:09.319Z,12.00
2019-05-30T01:46:37.528Z,8.83
2019-05-30T01:49:06.784Z,5.53
2019-05-30T01:51:35.061Z,6.73
2019-05-30T01:54:04.499Z,7.80
2019-05-30T01:56:32.823Z,6.17
2019-05-30T01:59:00.996Z,7.17
2019-05-30T02:01:29.263Z,5.70
2019-05-30T02:03:58.895Z,8.00
2019-05-30T02:06:27.316Z,5.23
2019-05-30T02:08:55.528Z,5.63
2019-05-30T02:11:23.793Z,5.10
2019-05-30T02:13:52.005Z,6.20
2019-05-30T02:16:20.210Z,6.50
2019-05-30T02:18:48.468Z,8.73
2019-05-30T02:21:16.693Z,6.23
2019-05-30T02:23:44.916Z,6.60
2019-05-30T02:26:13.157Z,6.50
2019-05-30T02:28:41.324Z,4.57
2019-05-30T02:31:11.663Z,5.30
2019-05-30T02:33:39.404Z,9.33
2019-05-30T02:36:08.488Z,5.53
2019-05-30T02:38:37.505Z,10.13
2019-05-30T02:41:07.473Z,7.20
2019-05-30T02:43:35.662Z,7.03
2019-05-30T02:46:05.717Z,9.37
2019-05-30T02:48:34.646Z,8.73
2019-05-30T02:51:05.377Z,8.80
2019-05-30T02:53:33.796Z,9.70
2019-05-30T02:56:03.576Z,7.13
2019-05-30T02:58:32.015Z,5.93
2019-05-30T03:01:01.846Z,8.30
2019-05-30T03:03:30.966Z,7.60
2019-05-30T03:06:01.633Z,7.40
2019-05-30T03:08:30.076Z,5.50
2019-05-30T03:10:59.188Z,6.97
2019-05-30T03:13:27.462Z,6.97
2019-05-30T03:15:55.694Z,8.10
2019-05-30T03:18:23.873Z,6.73
2019-05-30T03:20:52.161Z,8.80
2019-05-30T03:23:20.340Z,5.37
2019-05-30T03:25:48.574Z,7.10
2019-05-30T03:28:16.885Z,6.47
2019-05-30T03:30:45.622Z,9.43
2019-05-30T03:33:35.003Z,5.93
2019-05-30T03:35:44.417Z,9.27
2019-05-30T03:38:15.402Z,7.63
2019-05-30T03:40:42.887Z,8.20
2019-05-30T03:43:11.722Z,6.80
2019-05-30T03:45:42.557Z,8.70
2019-05-30T03:48:12.292Z,14.77
2019-05-30T03:50:42.721Z,5.33
2019-05-30T03:53:11.939Z,7.47
2019-05-30T03:55:42.505Z,7.53
2019-05-30T03:58:30.311Z,9.30
2019-05-30T04:01:03.120Z,6.87
2019-05-30T04:03:44.679Z,7.53
2019-05-30T04:06:26.587Z,10.40
2019-05-30T04:08:56.418Z,12.50
2019-05-30T04:11:26.153Z,9.07
2019-05-30T04:13:56.050Z,7.20
2019-05-30T04:16:24.234Z,6.83
2019-05-30T04:18:52.400Z,8.40
2019-05-30T04:21:21.657Z,7.93
2019-05-30T04:23:50.082Z,6.50
2019-05-30T04:26:19.237Z,7.30
2019-05-30T04:28:47.412Z,10.83
2019-05-30T04:31:17.190Z,10.70
2019-05-30T04:33:46.572Z,9.40
2019-05-30T04:36:14.901Z,6.20
2019-05-30T04:38:44.676Z,9.97
2019-05-30T04:41:13.454Z,7.93
2019-05-30T04:43:42.339Z,8.30
2019-05-30T04:46:12.199Z,6.57
2019-05-30T04:48:40.480Z,9.80
2019-05-30T04:51:10.147Z,7.00
2019-05-30T04:53:38.555Z,9.80
2019-05-30T04:56:06.760Z,8.27
2019-05-30T04:58:34.969Z,8.37
2019-05-30T05:01:03.142Z,7.53
2019-05-30T05:03:45.293Z,5.97
2019-05-30T05:06:01.232Z,7.07
2019-05-30T05:08:29.417Z,6.17
2019-05-30T05:10:57.665Z,6.00
2019-05-30T05:13:25.848Z,6.77
2019-05-30T05:15:54.060Z,6.30
2019-05-30T05:18:23.470Z,5.00
2019-05-30T05:20:51.784Z,8.10
2019-05-30T05:23:21.241Z,6.00
2019-05-30T05:26:00.377Z,7.60
2019-05-30T05:28:20.355Z,5.80
2019-05-30T05:30:48.578Z,6.60
2019-05-30T05:33:18.580Z,7.10
2019-05-30T05:35:46.792Z,9.13
2019-05-30T05:38:16.140Z,5.77
2019-05-30T05:40:44.498Z,7.17
2019-05-30T05:43:12.701Z,5.63
2019-05-30T05:45:41.048Z,8.10
2019-05-30T05:48:09.265Z,6.53
2019-05-30T05:50:37.466Z,10.47
2019-05-30T05:53:05.697Z,6.63
2019-05-30T05:55:33.907Z,7.43
2019-05-30T05:58:04.220Z,5.00
2019-05-30T06:00:32.241Z,6.23
2019-05-30T06:03:00.453Z,6.43
2019-05-30T06:05:28.623Z,6.20
2019-05-30T06:07:57.159Z,8.63
2019-05-30T06:10:25.803Z,8.90
2019-05-30T06:12:54.157Z,5.90
2019-05-30T06:15:22.920Z,6.10
2019-05-30T06:17:51.180Z,5.00
2019-05-30T06:20:21.312Z,11.77
2019-05-30T06:22:50.451Z,6.30
2019-05-30T06:25:21.143Z,9.60
2019-05-30T06:27:48.539Z,6.30
2019-05-30T06:30:18.136Z,5.60
2019-05-30T06:32:46.484Z,5.35
2019-05-30T06:35:14.720Z,5.35
2019-05-30T06:37:42.933Z,6.00
2019-05-30T06:40:11.280Z,5.13
2019-05-30T06:42:39.504Z,8.90
2019-05-30T06:45:08.265Z,11.00
2019-05-30T06:47:37.601Z,6.63
2019-05-30T06:50:07.317Z,4.67
2019-05-30T06:52:35.618Z,6.70
2019-05-30T06:55:04.785Z,7.00
2019-05-30T06:57:32.998Z,5.80
2019-05-30T07:00:01.289Z,5.20
2019-05-30T07:02:32.465Z,5.30
2019-05-30T07:05:02.603Z,3.90
2019-05-30T07:07:33.631Z,4.93
2019-05-30T07:10:02.055Z,10.23
2019-05-30T07:12:31.185Z,4.07
2019-05-30T07:14:59.472Z,3.00
2019-05-30T07:17:27.653Z,5.50
2019-05-30T07:19:57.207Z,4.10
2019-05-30T07:22:25.616Z,3.53
2019-05-30T07:24:54.788Z,3.40
2019-05-30T07:27:23.972Z,2.93
2019-05-30T07:29:53.369Z,4.10
2019-05-30T07:32:21.548Z,4.53
2019-05-30T07:35:03.443Z,6.80
2019-05-30T07:37:19.672Z,3.67
2019-05-30T07:39:48.867Z,4.13
2019-05-30T07:42:17.072Z,9.17
2019-05-30T07:44:45.289Z,5.23
2019-05-30T07:47:13.457Z,6.53
2019-05-30T07:49:43.010Z,3.43
2019-05-30T07:52:11.219Z,3.53
2019-05-30T07:54:39.425Z,4.43
2019-05-30T07:57:07.604Z,7.10
2019-05-30T07:59:35.788Z,5.00
2019-05-30T08:02:04.073Z,5.40
2019-05-30T08:04:32.847Z,3.63
2019-05-30T08:07:02.184Z,6.97
2019-05-30T08:09:30.895Z,4.60
2019-05-30T08:11:59.136Z,4.10
2019-05-30T08:14:27.357Z,5.40
2019-05-30T08:16:55.626Z,8.70
2019-05-30T08:19:23.805Z,3.80
2019-05-30T08:21:52.012Z,3.37
2019-05-30T08:24:20.305Z,3.03
2019-05-30T08:26:48.578Z,4.30
2019-05-30T08:29:16.817Z,2.87
2019-05-30T08:31:45.093Z,2.70
2019-05-30T08:34:13.405Z,3.17
2019-05-30T08:36:41.611Z,2.23
2019-05-30T08:39:09.862Z,3.60
2019-05-30T08:41:39.423Z,6.30
2019-05-30T08:44:07.708Z,3.93
2019-05-30T08:46:35.909Z,2.40
2019-05-30T08:49:04.120Z,2.70
2019-05-30T08:51:32.476Z,3.80
2019-05-30T08:54:00.645Z,4.30
2019-05-30T08:56:28.864Z,2.10
2019-05-30T08:58:57.100Z,2.20
2019-05-30T09:01:25.805Z,1.80
2019-05-30T09:03:54.017Z,2.43
2019-05-30T09:06:22.193Z,2.20
2019-05-30T09:08:50.404Z,4.67
2019-05-30T09:11:18.585Z,7.53
2019-05-30T09:13:46.854Z,2.80
2019-05-30T09:16:16.706Z,2.70
2019-05-30T09:18:45.251Z,4.60
2019-05-30T09:21:13.583Z,4.33
2019-05-30T09:23:42.238Z,2.00
2019-05-30T09:26:10.978Z,2.57
2019-05-30T09:28:40.587Z,3.10
2019-05-30T09:31:08.951Z,2.20
2019-05-30T09:33:38.067Z,2.93
2019-05-30T09:36:13.260Z,1.80
2019-05-30T09:38:36.958Z,2.07
2019-05-30T09:41:05.222Z,2.77
2019-05-30T09:43:33.429Z,1.70
2019-05-30T09:46:01.635Z,2.60
2019-05-30T09:48:30.075Z,2.23
2019-05-30T09:50:59.252Z,1.77
2019-05-30T09:53:27.434Z,2.00
2019-05-30T09:55:55.696Z,4.73
2019-05-30T09:58:24.095Z,2.23
2019-05-30T10:00:52.400Z,1.60
2019-05-30T10:03:20.628Z,3.63
2019-05-30T10:05:48.885Z,2.57
2019-05-30T10:08:17.089Z,1.83
2019-05-30T10:10:45.668Z,2.63
2019-05-30T10:13:14.475Z,2.30
2019-05-30T10:15:42.760Z,2.37
2019-05-30T10:18:10.936Z,3.07
2019-05-30T10:20:39.156Z,1.93
2019-05-30T10:23:07.362Z,2.60
2019-05-30T10:25:35.551Z,2.00
2019-05-30T10:28:04.225Z,2.67
2019-05-30T10:30:32.473Z,1.80
2019-05-30T10:33:00.636Z,3.40
2019-05-30T10:35:30.076Z,2.90
2019-05-30T10:37:58.504Z,2.00
2019-05-30T10:40:26.775Z,3.63
2019-05-30T10:42:56.516Z,2.33
2019-05-30T10:45:25.107Z,4.47
2019-05-30T10:47:53.705Z,3.77
2019-05-30T10:50:22.542Z,3.60
2019-05-30T10:52:51.475Z,1.97
2019-05-30T10:55:19.989Z,3.20
2019-05-30T10:57:48.639Z,1.80
2019-05-30T11:00:18.900Z,2.87
2019-05-30T11:02:47.825Z,2.03
2019-05-30T11:05:17.321Z,4.03
2019-05-30T11:08:06.131Z,2.17
2019-05-30T11:10:33.544Z,8.30
2019-05-30T11:13:05.914Z,8.50
2019-05-30T11:15:31.796Z,4.00
2019-05-30T11:18:00.015Z,1.80
2019-05-30T11:20:28.204Z,2.83
2019-05-30T11:22:56.534Z,2.17
2019-05-30T11:25:24.758Z,3.43
2019-05-30T11:27:53.026Z,2.70
2019-05-30T11:30:21.238Z,2.80
2019-05-30T11:32:50.829Z,4.60
2019-05-30T11:35:19.210Z,1.83
2019-05-30T11:37:47.506Z,3.50
2019-05-30T11:45:10.649Z,2.53
2019-05-30T12:02:24.965Z,2.67
2019-05-30T12:04:54.306Z,3.73
2019-05-30T12:07:35.899Z,2.53
2019-05-30T12:09:52.896Z,2.03
2019-05-30T12:12:21.224Z,1.80
2019-05-30T12:14:49.396Z,2.20
2019-05-30T12:17:17.592Z,4.87
2019-05-30T12:19:45.779Z,3.23
2019-05-30T12:22:13.971Z,3.80
2019-05-30T12:24:42.148Z,2.77
2019-05-30T12:27:10.316Z,2.80
2019-05-30T12:29:38.511Z,3.50
2019-05-30T12:32:06.687Z,1.77
2019-05-30T12:34:34.859Z,2.33
2019-05-30T12:37:03.114Z,2.33
2019-05-30T12:39:34.340Z,6.00
2019-05-30T12:42:03.393Z,2.07
2019-05-30T12:44:31.724Z,4.20
2019-05-30T12:47:01.238Z,2.30
2019-05-30T12:49:29.582Z,3.60
2019-05-30T12:51:58.371Z,2.00
2019-05-30T12:54:26.653Z,2.47
2019-05-30T12:56:54.868Z,1.90
2019-05-30T12:59:23.201Z,2.90
2019-05-30T13:01:51.409Z,2.33
2019-05-30T13:04:19.654Z,2.40
2019-05-30T13:06:47.835Z,2.10
2019-05-30T13:09:16.053Z,7.63
2019-05-30T13:11:44.262Z,2.00
2019-05-30T13:14:12.428Z,2.20
2019-05-30T13:16:40.658Z,2.10
2019-05-30T13:19:09.768Z,2.70
2019-05-30T13:21:37.948Z,2.30
2019-05-30T13:24:06.187Z,2.90
2019-05-30T13:26:34.445Z,2.77
2019-05-30T13:29:04.274Z,2.10
2019-05-30T13:31:32.598Z,3.50
2019-05-30T13:34:01.104Z,5.17
2019-05-30T13:36:29.400Z,2.43
2019-05-30T13:38:57.585Z,1.80
2019-05-30T13:41:25.761Z,1.90
2019-05-30T13:43:53.943Z,2.03
2019-05-30T13:46:22.118Z,4.00
2019-05-30T13:51:17.647Z,3.05
2019-05-30T13:56:13.252Z,4.20
2019-05-30T14:06:06.214Z,2.90
2019-05-30T14:08:41.456Z,5.20
2019-05-30T14:11:06.772Z,3.35
2019-05-30T14:13:35.117Z,2.00
2019-05-30T14:16:03.296Z,4.15
2019-05-30T14:18:31.497Z,1.95
2019-05-30T14:21:01.682Z,3.10
2019-05-30T14:23:29.613Z,1.90
2019-05-30T14:25:57.829Z,2.00
2019-05-30T14:28:26.029Z,1.87
2019-05-30T14:30:54.250Z,2.10
2019-05-30T14:33:22.466Z,1.70
2019-05-30T14:35:50.673Z,2.70
2019-05-30T14:38:18.879Z,2.47
2019-05-30T14:40:47.051Z,3.87
2019-05-30T14:43:15.294Z,2.20
2019-05-30T14:45:43.507Z,6.77
2019-05-30T14:48:12.595Z,3.20
2019-05-30T14:50:40.875Z,4.75
2019-05-30T14:53:09.093Z,2.40
2019-05-30T14:55:37.337Z,2.60
2019-05-30T14:58:07.032Z,3.30
2019-05-30T15:00:35.438Z,3.05
2019-05-30T15:03:07.494Z,4.93
2019-05-30T15:05:33.664Z,3.93
2019-05-30T15:08:01.878Z,2.30
2019-05-30T15:10:30.090Z,2.50
2019-05-30T15:12:58.258Z,3.20
2019-05-30T15:15:26.486Z,2.20
2019-05-30T15:17:54.688Z,2.53
2019-05-30T15:20:22.946Z,4.40
2019-05-30T15:22:51.145Z,4.90
2019-05-30T15:25:19.340Z,2.13
2019-05-30T15:27:47.575Z,3.25
2019-05-30T15:30:16.891Z,2.17
2019-05-30T15:32:46.270Z,2.50
2019-05-30T15:35:15.511Z,3.07
2019-05-30T15:37:43.957Z,2.50
2019-05-30T15:40:13.061Z,3.13
2019-05-30T15:42:41.426Z,3.00
2019-05-30T15:45:11.898Z,2.70
2019-05-30T15:47:41.253Z,2.60
2019-05-30T15:50:11.842Z,4.93
2019-05-30T15:52:40.640Z,3.30
2019-05-30T15:55:11.198Z,7.10
2019-05-30T15:57:39.647Z,5.60
2019-05-30T16:00:10.025Z,3.20
2019-05-30T16:02:38.296Z,4.33
2019-05-30T16:05:06.565Z,3.70
2019-05-30T16:07:34.782Z,4.00
2019-05-30T16:14:57.673Z,3.00
2019-05-30T16:17:25.856Z,3.57
2019-05-30T16:19:54.082Z,3.50
2019-05-30T16:22:22.661Z,4.23
2019-05-30T16:24:50.927Z,4.47
2019-05-30T16:27:19.791Z,3.93
2019-05-30T16:29:48.125Z,4.30
2019-05-30T16:32:16.332Z,3.07
2019-05-30T16:34:44.580Z,5.40
2019-05-30T16:37:14.054Z,3.00
2019-05-30T16:39:42.405Z,2.97
2019-05-30T16:42:10.623Z,2.73
2019-05-30T16:44:38.841Z,4.23
2019-05-30T16:47:07.114Z,4.10
2019-05-30T16:49:35.363Z,8.10
2019-05-30T16:52:03.677Z,4.47
2019-05-30T16:54:31.890Z,5.50
2019-05-30T16:57:00.087Z,3.83
2019-05-30T16:59:29.235Z,3.30
2019-05-30T17:01:58.609Z,2.73
2019-05-30T17:04:27.244Z,2.80
2019-05-30T17:06:57.544Z,3.50
2019-05-30T17:09:27.646Z,4.13
2019-05-30T17:11:55.957Z,4.10
2019-05-30T17:14:24.165Z,3.10
2019-05-30T17:16:52.360Z,7.60
2019-05-30T17:19:20.599Z,3.20
2019-05-30T17:21:48.895Z,3.20
2019-05-30T17:24:17.092Z,7.65
2019-05-30T17:26:45.268Z,4.00
2019-05-30T17:29:13.520Z,3.57
2019-05-30T17:31:41.723Z,4.17
2019-05-30T17:34:09.904Z,4.40
2019-05-30T17:36:38.085Z,3.93
2019-05-30T17:39:07.381Z,3.40
2019-05-30T17:41:35.577Z,7.73
2019-05-30T17:44:04.220Z,3.00
2019-05-30T17:46:33.314Z,3.93
2019-05-30T17:49:01.537Z,5.83
2019-05-30T17:51:30.006Z,3.70
2019-05-30T17:53:58.265Z,8.00
2019-05-30T17:56:26.461Z,3.67
2019-05-30T17:58:54.668Z,4.50
2019-05-30T18:01:22.871Z,4.00
2019-05-30T18:03:51.271Z,5.20
2019-05-30T18:06:20.390Z,4.63
2019-05-30T18:08:48.756Z,4.13
2019-05-30T18:11:16.954Z,6.07
2019-05-30T18:13:45.166Z,4.03
2019-05-30T18:16:14.324Z,7.37
2019-05-30T18:18:42.601Z,4.60
2019-05-30T18:21:10.818Z,4.57
2019-05-30T18:23:39.049Z,4.23
2019-05-30T18:26:07.345Z,4.23
2019-05-30T18:28:35.633Z,5.40
2019-05-30T18:31:03.825Z,6.27
2019-05-30T18:33:32.948Z,7.30
2019-05-30T18:36:01.269Z,5.80
2019-05-30T18:38:30.480Z,3.20
2019-05-30T18:41:11.015Z,4.07
2019-05-30T18:43:28.847Z,4.30
2019-05-30T18:45:57.111Z,5.00
2019-05-30T18:48:25.352Z,3.73
2019-05-30T18:50:53.528Z,9.73
2019-05-30T18:53:21.740Z,2.70
2019-05-30T18:55:50.042Z,3.17
2019-05-30T18:58:18.301Z,2.30
2019-05-30T19:00:46.506Z,3.30
2019-05-30T19:03:14.811Z,5.93
2019-05-30T19:05:43.016Z,4.70
2019-05-30T19:08:11.200Z,4.23
2019-05-30T19:10:39.375Z,3.37
2019-05-30T19:13:07.584Z,4.10
2019-05-30T19:15:35.817Z,2.60
2019-05-30T19:18:04.392Z,2.93
2019-05-30T19:20:33.806Z,4.00
2019-05-30T19:23:02.134Z,2.80
2019-05-30T19:25:32.229Z,2.67
2019-05-30T19:28:00.249Z,3.20
2019-05-30T19:30:28.582Z,3.27
2019-05-30T19:32:56.822Z,2.90
2019-05-30T19:35:25.033Z,2.77
2019-05-30T19:37:54.096Z,2.67
2019-05-30T19:40:24.877Z,2.67
2019-05-30T19:42:52.209Z,4.07
2019-05-30T19:45:20.523Z,3.30
2019-05-30T19:47:48.725Z,3.30
2019-05-30T19:50:17.010Z,3.80
2019-05-30T19:52:46.978Z,3.43
2019-05-30T19:55:15.307Z,4.40
2019-05-30T19:57:43.515Z,3.67
2019-05-30T20:00:13.197Z,3.87
2019-05-30T20:02:41.477Z,3.90
2019-05-30T20:05:09.821Z,3.30
2019-05-30T20:07:38.893Z,3.83
2019-05-30T20:10:07.549Z,3.57
2019-05-30T20:12:36.908Z,6.00
2019-05-30T20:15:06.847Z,4.03
2019-05-30T20:17:35.506Z,4.50
2019-05-30T20:20:05.130Z,4.33
2019-05-30T20:22:33.920Z,3.90
2019-05-30T20:25:02.223Z,3.40
2019-05-30T20:27:30.473Z,3.80
2019-05-30T20:29:59.331Z,4.77
2019-05-30T20:32:27.545Z,3.87
2019-05-30T20:34:55.751Z,4.60
2019-05-30T20:37:23.969Z,3.93
2019-05-30T20:39:52.225Z,5.17
2019-05-30T20:42:20.445Z,4.87
2019-05-30T20:44:48.644Z,3.60
2019-05-30T20:47:16.871Z,6.30
2019-05-30T20:49:45.077Z,4.10
2019-05-30T20:52:13.254Z,5.30
2019-05-30T20:54:41.511Z,5.67
2019-05-30T20:57:09.812Z,4.83
2019-05-30T20:59:38.516Z,4.40
2019-05-30T21:02:06.769Z,4.47
2019-05-30T21:04:34.986Z,3.53
2019-05-30T21:07:03.191Z,4.60
2019-05-30T21:09:32.504Z,8.07
2019-05-30T21:12:01.918Z,3.77
2019-05-30T21:14:32.063Z,4.33
2019-05-30T21:17:01.380Z,6.77
2019-05-30T21:19:29.591Z,5.30
2019-05-30T21:21:57.770Z,4.40
2019-05-30T21:24:25.963Z,5.43
2019-05-30T21:26:55.109Z,4.60
2019-05-30T21:29:23.278Z,4.00
2019-05-30T21:31:52.421Z,4.40
2019-05-30T21:34:20.634Z,4.77
2019-05-30T21:36:48.839Z,6.33
2019-05-30T21:39:17.024Z,4.63
2019-05-30T21:41:46.309Z,7.43
2019-05-30T21:44:14.621Z,5.70
2019-05-30T21:46:42.901Z,6.03
2019-05-30T21:49:11.105Z,5.43
2019-05-30T21:51:39.334Z,6.53
2019-05-30T21:54:07.609Z,10.47
2019-05-30T21:56:35.805Z,5.13
2019-05-30T21:59:04.018Z,5.27
2019-05-30T22:01:33.186Z,8.33
2019-05-30T22:04:01.649Z,5.00
2019-05-30T22:06:30.994Z,7.30
2019-05-30T22:09:03.062Z,5.20
2019-05-30T22:11:29.229Z,5.23
2019-05-30T22:13:57.490Z,5.20
2019-05-30T22:16:25.678Z,5.03
2019-05-30T22:18:53.889Z,5.30
2019-05-30T22:21:22.115Z,6.70
2019-05-30T22:23:50.493Z,6.00
2019-05-30T22:26:18.736Z,4.80
2019-05-30T22:28:47.025Z,6.80
2019-05-30T22:31:15.249Z,5.80
2019-05-30T22:33:44.644Z,5.20
2019-05-30T22:36:12.945Z,7.03
2019-05-30T22:38:41.120Z,5.60
2019-05-30T22:41:09.332Z,5.50
2019-05-30T22:43:37.573Z,6.07
2019-05-30T22:46:05.804Z,5.40
2019-05-30T22:48:34.004Z,8.77
2019-05-30T22:51:02.217Z,7.80
2019-05-30T22:53:30.415Z,10.60
2019-05-30T22:55:58.594Z,6.03
2019-05-30T22:58:26.803Z,7.53
2019-05-30T23:00:56.203Z,7.40
2019-05-30T23:03:24.505Z,6.90
2019-05-30T23:05:53.314Z,6.73
2019-05-30T23:08:21.580Z,7.70
2019-05-30T23:10:51.693Z,9.00
2019-05-30T23:13:20.046Z,7.10
2019-05-30T23:15:48.229Z,6.30
2019-05-30T23:18:16.453Z,7.57
2019-05-30T23:20:44.728Z,12.83
2019-05-30T23:23:14.034Z,6.17
2019-05-30T23:25:42.200Z,7.90
2019-05-30T23:28:10.417Z,6.93
2019-05-30T23:30:38.636Z,5.40
2019-05-30T23:33:06.849Z,6.07
2019-05-30T23:35:35.018Z,6.83
2019-05-30T23:38:03.195Z,9.30
2019-05-30T23:40:31.407Z,11.47
2019-05-30T23:42:59.676Z,8.00
2019-05-30T23:45:27.904Z,6.60
2019-05-30T23:47:56.083Z,9.93
2019-05-30T23:50:24.251Z,7.37
2019-05-30T23:52:52.443Z,7.23
2019-05-30T23:55:20.625Z,6.20
2019-05-30T23:57:48.799Z,7.03
